sensor_id;sensor_type;location;lat;lon;timestamp;P1;durP1;ratioP1;P2;durP2;ratioP2
11016;SDS011;54687;50.800;6.772;2023-04-16T00:00:21;14.25;;;7.05;;
11016;SDS011;54687;50.800;6.772;2023-04-16T00:02:48;13.85;;;7.82;;
11016;SDS011;54687;50.800;6.772;2023-04-16T00:05:15;14.57;;;7.28;;
11016;SDS011;54687;50.800;6.772;2023-04-16T00:07:41;12.18;;;6.68;;
11016;SDS011;54687;50.800;6.772;2023-04-16T00:10:08;18.25;;;7.47;;
11016;SDS011;54687;50.800;6.772;2023-04-16T00:12:37;15.68;;;7.50;;
11016;SDS011;54687;50.800;6.772;2023-04-16T00:15:03;13.02;;;7.38;;
11016;SDS011;54687;50.800;6.772;2023-04-16T00:17:30;12.68;;;7.10;;
11016;SDS011;54687;50.800;6.772;2023-04-16T00:19:57;17.05;;;7.40;;
11016;SDS011;54687;50.800;6.772;2023-04-16T00:22:23;10.57;;;6.32;;
11016;SDS011;54687;50.800;6.772;2023-04-16T00:24:50;13.05;;;6.90;;
11016;SDS011;54687;50.800;6.772;2023-04-16T00:27:17;12.60;;;7.13;;
11016;SDS011;54687;50.800;6.772;2023-04-16T00:29:45;12.05;;;6.70;;
11016;SDS011;54687;50.800;6.772;2023-04-16T00:32:12;10.10;;;7.20;;
11016;SDS011;54687;50.800;6.772;2023-04-16T00:34:38;11.88;;;7.10;;
11016;SDS011;54687;50.800;6.772;2023-04-16T00:37:05;14.85;;;7.57;;
11016;SDS011;54687;50.800;6.772;2023-04-16T00:39:32;12.77;;;7.22;;
11016;SDS011;54687;50.800;6.772;2023-04-16T00:41:58;9.98;;;7.00;;
11016;SDS011;54687;50.800;6.772;2023-04-16T00:44:25;9.30;;;6.95;;
11016;SDS011;54687;50.800;6.772;2023-04-16T00:46:53;10.85;;;7.38;;
11016;SDS011;54687;50.800;6.772;2023-04-16T00:49:20;15.32;;;7.93;;
11016;SDS011;54687;50.800;6.772;2023-04-16T00:51:47;14.32;;;8.30;;
11016;SDS011;54687;50.800;6.772;2023-04-16T00:54:14;8.95;;;6.82;;
11016;SDS011;54687;50.800;6.772;2023-04-16T00:56:41;12.45;;;7.63;;
11016;SDS011;54687;50.800;6.772;2023-04-16T00:59:07;12.18;;;7.53;;
11016;SDS011;54687;50.800;6.772;2023-04-16T01:01:35;15.73;;;8.63;;
11016;SDS011;54687;50.800;6.772;2023-04-16T01:04:03;11.90;;;8.35;;
11016;SDS011;54687;50.800;6.772;2023-04-16T01:06:31;12.73;;;8.00;;
11016;SDS011;54687;50.800;6.772;2023-04-16T01:08:57;11.68;;;8.10;;
11016;SDS011;54687;50.800;6.772;2023-04-16T01:11:24;10.38;;;8.13;;
11016;SDS011;54687;50.800;6.772;2023-04-16T01:13:51;10.73;;;8.07;;
11016;SDS011;54687;50.800;6.772;2023-04-16T01:16:18;9.45;;;7.55;;
11016;SDS011;54687;50.800;6.772;2023-04-16T01:18:44;11.43;;;7.55;;
11016;SDS011;54687;50.800;6.772;2023-04-16T01:21:12;12.85;;;7.90;;
11016;SDS011;54687;50.800;6.772;2023-04-16T01:23:39;15.25;;;8.73;;
11016;SDS011;54687;50.800;6.772;2023-04-16T01:26:06;15.98;;;8.43;;
11016;SDS011;54687;50.800;6.772;2023-04-16T01:28:32;14.23;;;8.93;;
11016;SDS011;54687;50.800;6.772;2023-04-16T01:30:59;15.18;;;8.60;;
11016;SDS011;54687;50.800;6.772;2023-04-16T01:33:25;20.42;;;8.80;;
11016;SDS011;54687;50.800;6.772;2023-04-16T01:35:52;12.20;;;8.40;;
11016;SDS011;54687;50.800;6.772;2023-04-16T01:38:20;12.35;;;8.40;;
11016;SDS011;54687;50.800;6.772;2023-04-16T01:40:46;14.70;;;9.07;;
11016;SDS011;54687;50.800;6.772;2023-04-16T01:43:13;16.63;;;8.88;;
11016;SDS011;54687;50.800;6.772;2023-04-16T01:45:40;16.98;;;9.57;;
11016;SDS011;54687;50.800;6.772;2023-04-16T01:48:06;14.23;;;9.32;;
11016;SDS011;54687;50.800;6.772;2023-04-16T01:50:33;16.48;;;8.80;;
11016;SDS011;54687;50.800;6.772;2023-04-16T01:53:00;15.35;;;9.38;;
11016;SDS011;54687;50.800;6.772;2023-04-16T01:55:30;18.40;;;9.98;;
11016;SDS011;54687;50.800;6.772;2023-04-16T01:57:57;14.40;;;9.80;;
11016;SDS011;54687;50.800;6.772;2023-04-16T02:00:23;14.77;;;9.77;;
11016;SDS011;54687;50.800;6.772;2023-04-16T02:02:50;11.27;;;8.90;;
11016;SDS011;54687;50.800;6.772;2023-04-16T02:05:16;18.60;;;10.15;;
11016;SDS011;54687;50.800;6.772;2023-04-16T02:07:43;14.00;;;9.48;;
11016;SDS011;54687;50.800;6.772;2023-04-16T02:10:10;17.30;;;9.80;;
11016;SDS011;54687;50.800;6.772;2023-04-16T02:12:38;19.60;;;10.48;;
11016;SDS011;54687;50.800;6.772;2023-04-16T02:15:05;21.15;;;10.45;;
11016;SDS011;54687;50.800;6.772;2023-04-16T02:17:32;15.52;;;9.98;;
11016;SDS011;54687;50.800;6.772;2023-04-16T02:19:58;14.20;;;10.02;;
11016;SDS011;54687;50.800;6.772;2023-04-16T02:22:26;17.95;;;10.98;;
11016;SDS011;54687;50.800;6.772;2023-04-16T02:24:53;15.35;;;10.57;;
11016;SDS011;54687;50.800;6.772;2023-04-16T02:27:19;12.88;;;10.05;;
11016;SDS011;54687;50.800;6.772;2023-04-16T02:29:47;16.88;;;10.10;;
11016;SDS011;54687;50.800;6.772;2023-04-16T02:32:14;18.70;;;11.10;;
11016;SDS011;54687;50.800;6.772;2023-04-16T02:34:40;18.52;;;11.65;;
11016;SDS011;54687;50.800;6.772;2023-04-16T02:37:07;25.35;;;11.68;;
11016;SDS011;54687;50.800;6.772;2023-04-16T02:39:34;17.25;;;11.80;;
11016;SDS011;54687;50.800;6.772;2023-04-16T02:42:00;17.70;;;12.13;;
11016;SDS011;54687;50.800;6.772;2023-04-16T02:44:27;17.63;;;12.50;;
11016;SDS011;54687;50.800;6.772;2023-04-16T02:46:55;17.50;;;12.02;;
11016;SDS011;54687;50.800;6.772;2023-04-16T02:49:21;20.90;;;12.02;;
11016;SDS011;54687;50.800;6.772;2023-04-16T02:51:48;20.45;;;12.60;;
11016;SDS011;54687;50.800;6.772;2023-04-16T02:54:15;20.58;;;12.77;;
11016;SDS011;54687;50.800;6.772;2023-04-16T02:56:41;27.20;;;12.88;;
11016;SDS011;54687;50.800;6.772;2023-04-16T02:59:08;21.90;;;13.50;;
11016;SDS011;54687;50.800;6.772;2023-04-16T03:01:34;23.65;;;13.20;;
11016;SDS011;54687;50.800;6.772;2023-04-16T03:04:02;23.30;;;13.30;;
11016;SDS011;54687;50.800;6.772;2023-04-16T03:06:29;20.70;;;12.82;;
11016;SDS011;54687;50.800;6.772;2023-04-16T03:08:56;16.60;;;12.02;;
11016;SDS011;54687;50.800;6.772;2023-04-16T03:11:23;20.50;;;13.43;;
11016;SDS011;54687;50.800;6.772;2023-04-16T03:13:49;21.92;;;12.55;;
11016;SDS011;54687;50.800;6.772;2023-04-16T03:16:16;21.63;;;13.13;;
11016;SDS011;54687;50.800;6.772;2023-04-16T03:18:42;18.42;;;12.20;;
11016;SDS011;54687;50.800;6.772;2023-04-16T03:21:10;20.63;;;12.93;;
11016;SDS011;54687;50.800;6.772;2023-04-16T03:23:37;20.40;;;13.30;;
11016;SDS011;54687;50.800;6.772;2023-04-16T03:26:03;19.63;;;13.00;;
11016;SDS011;54687;50.800;6.772;2023-04-16T03:28:30;18.67;;;13.88;;
11016;SDS011;54687;50.800;6.772;2023-04-16T03:30:57;18.35;;;13.60;;
11016;SDS011;54687;50.800;6.772;2023-04-16T03:33:23;22.63;;;14.40;;
11016;SDS011;54687;50.800;6.772;2023-04-16T03:35:53;17.10;;;13.77;;
11016;SDS011;54687;50.800;6.772;2023-04-16T03:38:22;22.42;;;14.35;;
11016;SDS011;54687;50.800;6.772;2023-04-16T03:40:49;18.17;;;13.68;;
11016;SDS011;54687;50.800;6.772;2023-04-16T03:43:16;23.70;;;15.18;;
11016;SDS011;54687;50.800;6.772;2023-04-16T03:45:43;19.52;;;13.70;;
11016;SDS011;54687;50.800;6.772;2023-04-16T03:48:09;19.58;;;14.07;;
11016;SDS011;54687;50.800;6.772;2023-04-16T03:50:36;21.25;;;15.65;;
11016;SDS011;54687;50.800;6.772;2023-04-16T03:53:03;19.05;;;14.77;;
11016;SDS011;54687;50.800;6.772;2023-04-16T03:55:31;19.98;;;15.07;;
11016;SDS011;54687;50.800;6.772;2023-04-16T03:57:57;21.92;;;14.73;;
11016;SDS011;54687;50.800;6.772;2023-04-16T04:00:27;19.60;;;15.23;;
11016;SDS011;54687;50.800;6.772;2023-04-16T04:02:53;19.50;;;15.40;;
11016;SDS011;54687;50.800;6.772;2023-04-16T04:05:20;24.33;;;16.42;;
11016;SDS011;54687;50.800;6.772;2023-04-16T04:07:46;20.17;;;15.85;;
11016;SDS011;54687;50.800;6.772;2023-04-16T04:10:13;20.02;;;15.85;;
11016;SDS011;54687;50.800;6.772;2023-04-16T04:12:41;20.85;;;15.48;;
11016;SDS011;54687;50.800;6.772;2023-04-16T04:15:08;19.83;;;15.90;;
11016;SDS011;54687;50.800;6.772;2023-04-16T04:17:35;20.15;;;15.63;;
11016;SDS011;54687;50.800;6.772;2023-04-16T04:20:03;24.13;;;15.88;;
11016;SDS011;54687;50.800;6.772;2023-04-16T04:22:30;23.42;;;17.58;;
11016;SDS011;54687;50.800;6.772;2023-04-16T04:24:56;20.48;;;16.73;;
11016;SDS011;54687;50.800;6.772;2023-04-16T04:27:23;24.50;;;16.85;;
11016;SDS011;54687;50.800;6.772;2023-04-16T04:29:51;23.23;;;16.50;;
11016;SDS011;54687;50.800;6.772;2023-04-16T04:32:18;24.13;;;17.65;;
11016;SDS011;54687;50.800;6.772;2023-04-16T04:34:44;23.60;;;18.60;;
11016;SDS011;54687;50.800;6.772;2023-04-16T04:37:11;26.88;;;18.67;;
11016;SDS011;54687;50.800;6.772;2023-04-16T04:39:37;28.67;;;18.08;;
11016;SDS011;54687;50.800;6.772;2023-04-16T04:42:04;23.00;;;17.67;;
11016;SDS011;54687;50.800;6.772;2023-04-16T04:44:31;20.75;;;17.88;;
11016;SDS011;54687;50.800;6.772;2023-04-16T04:46:58;27.63;;;18.52;;
11016;SDS011;54687;50.800;6.772;2023-04-16T04:49:25;23.90;;;17.92;;
11016;SDS011;54687;50.800;6.772;2023-04-16T04:51:51;25.55;;;18.58;;
11016;SDS011;54687;50.800;6.772;2023-04-16T04:54:18;23.30;;;17.23;;
11016;SDS011;54687;50.800;6.772;2023-04-16T04:56:45;22.70;;;17.55;;
11016;SDS011;54687;50.800;6.772;2023-04-16T04:59:11;24.13;;;17.48;;
11016;SDS011;54687;50.800;6.772;2023-04-16T05:01:38;26.35;;;19.08;;
11016;SDS011;54687;50.800;6.772;2023-04-16T05:04:06;22.42;;;17.98;;
11016;SDS011;54687;50.800;6.772;2023-04-16T05:06:32;22.02;;;17.35;;
11016;SDS011;54687;50.800;6.772;2023-04-16T05:08:59;22.73;;;18.08;;
11016;SDS011;54687;50.800;6.772;2023-04-16T05:11:25;21.95;;;17.70;;
11016;SDS011;54687;50.800;6.772;2023-04-16T05:13:52;21.95;;;16.65;;
11016;SDS011;54687;50.800;6.772;2023-04-16T05:16:18;24.10;;;17.88;;
11016;SDS011;54687;50.800;6.772;2023-04-16T05:18:45;23.10;;;17.05;;
11016;SDS011;54687;50.800;6.772;2023-04-16T05:21:13;22.17;;;18.48;;
11016;SDS011;54687;50.800;6.772;2023-04-16T05:23:39;24.05;;;17.83;;
11016;SDS011;54687;50.800;6.772;2023-04-16T05:26:06;23.88;;;17.88;;
11016;SDS011;54687;50.800;6.772;2023-04-16T05:28:32;21.90;;;17.60;;
11016;SDS011;54687;50.800;6.772;2023-04-16T05:30:59;24.73;;;17.65;;
11016;SDS011;54687;50.800;6.772;2023-04-16T05:33:25;24.60;;;18.00;;
11016;SDS011;54687;50.800;6.772;2023-04-16T05:35:52;26.55;;;17.77;;
11016;SDS011;54687;50.800;6.772;2023-04-16T05:38:20;22.65;;;17.40;;
11016;SDS011;54687;50.800;6.772;2023-04-16T05:40:46;24.45;;;17.27;;
11016;SDS011;54687;50.800;6.772;2023-04-16T05:43:13;23.45;;;17.05;;
11016;SDS011;54687;50.800;6.772;2023-04-16T05:45:39;27.08;;;17.85;;
11016;SDS011;54687;50.800;6.772;2023-04-16T05:48:06;18.88;;;15.70;;
11016;SDS011;54687;50.800;6.772;2023-04-16T05:50:34;23.63;;;17.17;;
11016;SDS011;54687;50.800;6.772;2023-04-16T05:53:00;22.67;;;16.90;;
11016;SDS011;54687;50.800;6.772;2023-04-16T05:55:29;24.95;;;16.63;;
11016;SDS011;54687;50.800;6.772;2023-04-16T05:57:56;31.17;;;20.05;;
11016;SDS011;54687;50.800;6.772;2023-04-16T06:00:22;20.60;;;16.25;;
11016;SDS011;54687;50.800;6.772;2023-04-16T06:02:49;22.98;;;15.07;;
11016;SDS011;54687;50.800;6.772;2023-04-16T06:05:16;23.58;;;17.00;;
11016;SDS011;54687;50.800;6.772;2023-04-16T06:07:42;27.27;;;18.45;;
11016;SDS011;54687;50.800;6.772;2023-04-16T06:10:09;25.60;;;18.30;;
11016;SDS011;54687;50.800;6.772;2023-04-16T06:12:37;29.83;;;19.15;;
11016;SDS011;54687;50.800;6.772;2023-04-16T06:15:04;25.83;;;18.23;;
11016;SDS011;54687;50.800;6.772;2023-04-16T06:17:31;22.90;;;17.63;;
11016;SDS011;54687;50.800;6.772;2023-04-16T06:19:58;22.35;;;16.77;;
11016;SDS011;54687;50.800;6.772;2023-04-16T06:22:25;24.13;;;16.88;;
11016;SDS011;54687;50.800;6.772;2023-04-16T06:24:51;24.33;;;19.40;;
11016;SDS011;54687;50.800;6.772;2023-04-16T06:27:18;24.98;;;17.48;;
11016;SDS011;54687;50.800;6.772;2023-04-16T06:29:46;20.77;;;17.20;;
11016;SDS011;54687;50.800;6.772;2023-04-16T06:32:13;20.35;;;15.63;;
11016;SDS011;54687;50.800;6.772;2023-04-16T06:34:41;16.75;;;14.82;;
11016;SDS011;54687;50.800;6.772;2023-04-16T06:37:07;20.38;;;15.63;;
11016;SDS011;54687;50.800;6.772;2023-04-16T06:39:34;18.73;;;15.15;;
11016;SDS011;54687;50.800;6.772;2023-04-16T06:42:00;20.80;;;15.80;;
11016;SDS011;54687;50.800;6.772;2023-04-16T06:44:27;20.80;;;16.17;;
11016;SDS011;54687;50.800;6.772;2023-04-16T06:46:56;19.90;;;15.27;;
11016;SDS011;54687;50.800;6.772;2023-04-16T06:49:22;19.10;;;16.10;;
11016;SDS011;54687;50.800;6.772;2023-04-16T06:51:49;21.85;;;16.63;;
11016;SDS011;54687;50.800;6.772;2023-04-16T06:54:15;16.23;;;14.48;;
11016;SDS011;54687;50.800;6.772;2023-04-16T06:56:43;17.73;;;15.18;;
11016;SDS011;54687;50.800;6.772;2023-04-16T06:59:10;24.77;;;17.02;;
11016;SDS011;54687;50.800;6.772;2023-04-16T07:01:36;20.10;;;16.63;;
11016;SDS011;54687;50.800;6.772;2023-04-16T07:04:04;24.95;;;17.98;;
11016;SDS011;54687;50.800;6.772;2023-04-16T07:06:31;25.40;;;16.95;;
11016;SDS011;54687;50.800;6.772;2023-04-16T07:08:58;20.08;;;17.77;;
11016;SDS011;54687;50.800;6.772;2023-04-16T07:11:25;21.60;;;17.70;;
11016;SDS011;54687;50.800;6.772;2023-04-16T07:13:52;26.27;;;18.58;;
11016;SDS011;54687;50.800;6.772;2023-04-16T07:16:18;24.98;;;19.83;;
11016;SDS011;54687;50.800;6.772;2023-04-16T07:18:45;23.05;;;18.13;;
11016;SDS011;54687;50.800;6.772;2023-04-16T07:21:13;24.75;;;19.13;;
11016;SDS011;54687;50.800;6.772;2023-04-16T07:23:40;26.05;;;20.38;;
11016;SDS011;54687;50.800;6.772;2023-04-16T07:26:06;27.17;;;20.55;;
11016;SDS011;54687;50.800;6.772;2023-04-16T07:28:33;26.58;;;19.48;;
11016;SDS011;54687;50.800;6.772;2023-04-16T07:31:00;26.95;;;20.60;;
11016;SDS011;54687;50.800;6.772;2023-04-16T07:33:26;24.98;;;20.00;;
11016;SDS011;54687;50.800;6.772;2023-04-16T07:35:53;23.95;;;19.42;;
11016;SDS011;54687;50.800;6.772;2023-04-16T07:38:21;26.23;;;20.23;;
11016;SDS011;54687;50.800;6.772;2023-04-16T07:40:47;23.63;;;18.95;;
11016;SDS011;54687;50.800;6.772;2023-04-16T07:43:14;25.83;;;19.08;;
11016;SDS011;54687;50.800;6.772;2023-04-16T07:45:40;30.92;;;21.88;;
11016;SDS011;54687;50.800;6.772;2023-04-16T07:48:07;32.55;;;22.58;;
11016;SDS011;54687;50.800;6.772;2023-04-16T07:50:34;25.80;;;21.17;;
11016;SDS011;54687;50.800;6.772;2023-04-16T07:53:00;28.25;;;20.92;;
11016;SDS011;54687;50.800;6.772;2023-04-16T07:55:28;22.40;;;19.52;;
11016;SDS011;54687;50.800;6.772;2023-04-16T07:57:55;26.60;;;21.02;;
11016;SDS011;54687;50.800;6.772;2023-04-16T08:00:21;25.10;;;19.92;;
11016;SDS011;54687;50.800;6.772;2023-04-16T08:02:48;24.27;;;19.63;;
11016;SDS011;54687;50.800;6.772;2023-04-16T08:05:14;24.45;;;19.52;;
11016;SDS011;54687;50.800;6.772;2023-04-16T08:07:41;22.27;;;19.98;;
11016;SDS011;54687;50.800;6.772;2023-04-16T08:10:08;24.33;;;19.85;;
11016;SDS011;54687;50.800;6.772;2023-04-16T08:12:36;23.38;;;19.50;;
11016;SDS011;54687;50.800;6.772;2023-04-16T08:15:03;21.60;;;17.48;;
11016;SDS011;54687;50.800;6.772;2023-04-16T08:17:30;20.63;;;18.42;;
11016;SDS011;54687;50.800;6.772;2023-04-16T08:19:58;22.08;;;19.40;;
11016;SDS011;54687;50.800;6.772;2023-04-16T08:22:26;21.00;;;18.15;;
11016;SDS011;54687;50.800;6.772;2023-04-16T08:24:53;23.25;;;19.65;;
11016;SDS011;54687;50.800;6.772;2023-04-16T08:27:19;22.92;;;18.80;;
11016;SDS011;54687;50.800;6.772;2023-04-16T08:29:47;24.15;;;19.15;;
11016;SDS011;54687;50.800;6.772;2023-04-16T08:32:14;23.85;;;20.88;;
11016;SDS011;54687;50.800;6.772;2023-04-16T08:34:41;27.83;;;21.92;;
11016;SDS011;54687;50.800;6.772;2023-04-16T08:37:07;23.90;;;20.60;;
11016;SDS011;54687;50.800;6.772;2023-04-16T08:39:34;21.67;;;18.65;;
11016;SDS011;54687;50.800;6.772;2023-04-16T08:42:02;22.05;;;17.50;;
11016;SDS011;54687;50.800;6.772;2023-04-16T08:44:31;21.02;;;17.65;;
11016;SDS011;54687;50.800;6.772;2023-04-16T08:47:01;23.50;;;17.63;;
11016;SDS011;54687;50.800;6.772;2023-04-16T08:49:28;21.75;;;17.75;;
11016;SDS011;54687;50.800;6.772;2023-04-16T08:52:01;24.30;;;17.98;;
11016;SDS011;54687;50.800;6.772;2023-04-16T08:54:33;23.88;;;18.55;;
11016;SDS011;54687;50.800;6.772;2023-04-16T08:57:05;27.77;;;22.73;;
11016;SDS011;54687;50.800;6.772;2023-04-16T08:59:32;42.00;;;31.95;;
11016;SDS011;54687;50.800;6.772;2023-04-16T09:02:01;43.70;;;33.13;;
11016;SDS011;54687;50.800;6.772;2023-04-16T09:04:27;58.92;;;41.58;;
11016;SDS011;54687;50.800;6.772;2023-04-16T09:06:54;57.85;;;42.78;;
11016;SDS011;54687;50.800;6.772;2023-04-16T09:09:21;56.90;;;42.72;;
11016;SDS011;54687;50.800;6.772;2023-04-16T09:11:49;62.72;;;45.55;;
11016;SDS011;54687;50.800;6.772;2023-04-16T09:14:17;57.95;;;44.08;;
11016;SDS011;54687;50.800;6.772;2023-04-16T09:16:44;66.30;;;45.63;;
11016;SDS011;54687;50.800;6.772;2023-04-16T09:19:13;65.45;;;45.70;;
11016;SDS011;54687;50.800;6.772;2023-04-16T09:21:40;58.88;;;44.75;;
11016;SDS011;54687;50.800;6.772;2023-04-16T09:24:08;58.47;;;44.05;;
11016;SDS011;54687;50.800;6.772;2023-04-16T09:26:34;54.67;;;42.22;;
11016;SDS011;54687;50.800;6.772;2023-04-16T09:29:01;56.30;;;41.53;;
11016;SDS011;54687;50.800;6.772;2023-04-16T09:31:28;61.42;;;44.30;;
11016;SDS011;54687;50.800;6.772;2023-04-16T09:34:02;58.75;;;43.10;;
11016;SDS011;54687;50.800;6.772;2023-04-16T09:36:30;63.63;;;43.00;;
11016;SDS011;54687;50.800;6.772;2023-04-16T09:38:58;58.25;;;43.85;;
11016;SDS011;54687;50.800;6.772;2023-04-16T09:41:26;57.75;;;42.55;;
11016;SDS011;54687;50.800;6.772;2023-04-16T09:43:54;65.20;;;44.55;;
11016;SDS011;54687;50.800;6.772;2023-04-16T09:46:22;54.40;;;41.40;;
11016;SDS011;54687;50.800;6.772;2023-04-16T09:48:49;51.60;;;39.85;;
11016;SDS011;54687;50.800;6.772;2023-04-16T09:51:16;46.58;;;37.17;;
11016;SDS011;54687;50.800;6.772;2023-04-16T09:53:43;43.63;;;34.70;;
11016;SDS011;54687;50.800;6.772;2023-04-16T09:56:10;43.63;;;34.25;;
11016;SDS011;54687;50.800;6.772;2023-04-16T09:58:37;37.78;;;32.70;;
11016;SDS011;54687;50.800;6.772;2023-04-16T10:01:06;36.60;;;32.63;;
11016;SDS011;54687;50.800;6.772;2023-04-16T10:03:35;40.20;;;33.88;;
11016;SDS011;54687;50.800;6.772;2023-04-16T10:06:06;38.67;;;33.30;;
11016;SDS011;54687;50.800;6.772;2023-04-16T10:08:33;38.80;;;32.05;;
11016;SDS011;54687;50.800;6.772;2023-04-16T10:11:02;36.10;;;32.15;;
11016;SDS011;54687;50.800;6.772;2023-04-16T10:13:29;32.50;;;29.02;;
11016;SDS011;54687;50.800;6.772;2023-04-16T10:15:56;27.85;;;24.35;;
11016;SDS011;54687;50.800;6.772;2023-04-16T10:18:23;30.95;;;25.75;;
11016;SDS011;54687;50.800;6.772;2023-04-16T10:20:50;30.40;;;27.10;;
11016;SDS011;54687;50.800;6.772;2023-04-16T10:23:18;31.10;;;25.58;;
11016;SDS011;54687;50.800;6.772;2023-04-16T10:25:46;28.88;;;24.13;;
11016;SDS011;54687;50.800;6.772;2023-04-16T10:28:15;30.02;;;25.90;;
11016;SDS011;54687;50.800;6.772;2023-04-16T10:30:43;29.40;;;24.75;;
11016;SDS011;54687;50.800;6.772;2023-04-16T10:33:18;34.65;;;29.20;;
11016;SDS011;54687;50.800;6.772;2023-04-16T10:35:47;40.47;;;33.13;;
11016;SDS011;54687;50.800;6.772;2023-04-16T10:38:21;36.90;;;32.90;;
11016;SDS011;54687;50.800;6.772;2023-04-16T10:40:49;38.05;;;32.50;;
11016;SDS011;54687;50.800;6.772;2023-04-16T10:43:17;34.63;;;30.95;;
11016;SDS011;54687;50.800;6.772;2023-04-16T10:45:45;36.10;;;32.28;;
11016;SDS011;54687;50.800;6.772;2023-04-16T10:48:13;33.65;;;30.15;;
11016;SDS011;54687;50.800;6.772;2023-04-16T10:50:41;34.72;;;28.80;;
11016;SDS011;54687;50.800;6.772;2023-04-16T10:53:17;34.55;;;29.13;;
11016;SDS011;54687;50.800;6.772;2023-04-16T10:55:58;36.20;;;32.25;;
11016;SDS011;54687;50.800;6.772;2023-04-16T10:58:38;35.20;;;31.63;;
11016;SDS011;54687;50.800;6.772;2023-04-16T11:01:05;37.05;;;31.42;;
11016;SDS011;54687;50.800;6.772;2023-04-16T11:03:33;32.47;;;29.27;;
11016;SDS011;54687;50.800;6.772;2023-04-16T11:06:09;34.08;;;29.80;;
11016;SDS011;54687;50.800;6.772;2023-04-16T11:08:37;33.70;;;28.98;;
11016;SDS011;54687;50.800;6.772;2023-04-16T11:11:04;30.67;;;26.20;;
11016;SDS011;54687;50.800;6.772;2023-04-16T11:13:31;29.73;;;25.58;;
11016;SDS011;54687;50.800;6.772;2023-04-16T11:16:01;26.42;;;23.63;;
11016;SDS011;54687;50.800;6.772;2023-04-16T11:18:28;29.00;;;24.92;;
11016;SDS011;54687;50.800;6.772;2023-04-16T11:20:55;28.95;;;25.60;;
11016;SDS011;54687;50.800;6.772;2023-04-16T11:23:22;28.40;;;25.40;;
11016;SDS011;54687;50.800;6.772;2023-04-16T11:25:48;30.80;;;27.50;;
11016;SDS011;54687;50.800;6.772;2023-04-16T11:28:19;29.85;;;26.63;;
11016;SDS011;54687;50.800;6.772;2023-04-16T11:30:46;30.38;;;27.05;;
11016;SDS011;54687;50.800;6.772;2023-04-16T11:33:14;31.60;;;28.20;;
11016;SDS011;54687;50.800;6.772;2023-04-16T11:35:40;28.48;;;25.45;;
11016;SDS011;54687;50.800;6.772;2023-04-16T11:38:09;26.63;;;23.77;;
11016;SDS011;54687;50.800;6.772;2023-04-16T11:40:36;28.10;;;24.77;;
11016;SDS011;54687;50.800;6.772;2023-04-16T11:43:04;29.65;;;25.38;;
11016;SDS011;54687;50.800;6.772;2023-04-16T11:45:39;30.77;;;27.02;;
11016;SDS011;54687;50.800;6.772;2023-04-16T11:48:06;26.17;;;23.45;;
11016;SDS011;54687;50.800;6.772;2023-04-16T11:50:34;28.17;;;24.88;;
11016;SDS011;54687;50.800;6.772;2023-04-16T11:53:02;29.67;;;25.92;;
11016;SDS011;54687;50.800;6.772;2023-04-16T11:55:30;29.25;;;25.65;;
11016;SDS011;54687;50.800;6.772;2023-04-16T11:57:56;26.75;;;23.95;;
11016;SDS011;54687;50.800;6.772;2023-04-16T12:00:36;29.05;;;26.05;;
11016;SDS011;54687;50.800;6.772;2023-04-16T12:03:03;29.45;;;26.33;;
11016;SDS011;54687;50.800;6.772;2023-04-16T12:05:30;30.95;;;27.77;;
11016;SDS011;54687;50.800;6.772;2023-04-16T12:08:01;29.25;;;26.25;;
11016;SDS011;54687;50.800;6.772;2023-04-16T12:10:29;27.27;;;24.50;;
11016;SDS011;54687;50.800;6.772;2023-04-16T12:13:08;30.50;;;27.60;;
11016;SDS011;54687;50.800;6.772;2023-04-16T12:15:43;28.08;;;25.30;;
11016;SDS011;54687;50.800;6.772;2023-04-16T12:18:13;28.63;;;25.98;;
11016;SDS011;54687;50.800;6.772;2023-04-16T12:20:40;29.65;;;26.70;;
11016;SDS011;54687;50.800;6.772;2023-04-16T12:23:09;30.20;;;27.25;;
11016;SDS011;54687;50.800;6.772;2023-04-16T12:25:47;27.83;;;25.10;;
11016;SDS011;54687;50.800;6.772;2023-04-16T12:28:14;28.13;;;25.30;;
11016;SDS011;54687;50.800;6.772;2023-04-16T12:30:51;31.42;;;28.40;;
11016;SDS011;54687;50.800;6.772;2023-04-16T12:33:19;27.45;;;24.92;;
11016;SDS011;54687;50.800;6.772;2023-04-16T12:35:46;28.25;;;25.45;;
11016;SDS011;54687;50.800;6.772;2023-04-16T12:38:14;27.27;;;24.77;;
11016;SDS011;54687;50.800;6.772;2023-04-16T12:40:41;26.50;;;24.08;;
11016;SDS011;54687;50.800;6.772;2023-04-16T12:43:08;25.52;;;23.15;;
11016;SDS011;54687;50.800;6.772;2023-04-16T12:45:35;25.30;;;22.95;;
11016;SDS011;54687;50.800;6.772;2023-04-16T12:48:02;28.27;;;25.77;;
11016;SDS011;54687;50.800;6.772;2023-04-16T12:50:29;26.45;;;23.90;;
11016;SDS011;54687;50.800;6.772;2023-04-16T12:52:56;26.00;;;23.50;;
11016;SDS011;54687;50.800;6.772;2023-04-16T12:55:25;26.05;;;23.52;;
11016;SDS011;54687;50.800;6.772;2023-04-16T12:57:53;27.70;;;25.30;;
11016;SDS011;54687;50.800;6.772;2023-04-16T13:00:19;26.60;;;23.98;;
11016;SDS011;54687;50.800;6.772;2023-04-16T13:02:46;24.52;;;22.42;;
11016;SDS011;54687;50.800;6.772;2023-04-16T13:05:13;25.05;;;22.67;;
11016;SDS011;54687;50.800;6.772;2023-04-16T13:07:40;25.65;;;23.27;;
11016;SDS011;54687;50.800;6.772;2023-04-16T13:10:07;24.35;;;22.10;;
11016;SDS011;54687;50.800;6.772;2023-04-16T13:12:36;25.08;;;22.67;;
11016;SDS011;54687;50.800;6.772;2023-04-16T13:15:03;25.27;;;22.77;;
11016;SDS011;54687;50.800;6.772;2023-04-16T13:17:30;28.17;;;24.27;;
11016;SDS011;54687;50.800;6.772;2023-04-16T13:19:56;26.23;;;23.60;;
11016;SDS011;54687;50.800;6.772;2023-04-16T13:22:23;23.92;;;21.58;;
11016;SDS011;54687;50.800;6.772;2023-04-16T13:24:50;23.85;;;21.55;;
11016;SDS011;54687;50.800;6.772;2023-04-16T13:27:16;22.92;;;20.60;;
11016;SDS011;54687;50.800;6.772;2023-04-16T13:29:44;22.45;;;20.27;;
11016;SDS011;54687;50.800;6.772;2023-04-16T13:32:11;21.40;;;19.25;;
11016;SDS011;54687;50.800;6.772;2023-04-16T13:34:38;23.08;;;20.77;;
11016;SDS011;54687;50.800;6.772;2023-04-16T13:37:05;23.08;;;20.77;;
11016;SDS011;54687;50.800;6.772;2023-04-16T13:39:32;22.30;;;20.13;;
11016;SDS011;54687;50.800;6.772;2023-04-16T13:41:58;21.23;;;19.27;;
11016;SDS011;54687;50.800;6.772;2023-04-16T13:44:26;20.90;;;18.67;;
11016;SDS011;54687;50.800;6.772;2023-04-16T13:46:53;22.08;;;19.70;;
11016;SDS011;54687;50.800;6.772;2023-04-16T13:49:20;22.85;;;19.45;;
11016;SDS011;54687;50.800;6.772;2023-04-16T13:51:47;21.27;;;19.23;;
11016;SDS011;54687;50.800;6.772;2023-04-16T13:54:14;20.70;;;18.63;;
11016;SDS011;54687;50.800;6.772;2023-04-16T13:56:41;18.88;;;17.00;;
11016;SDS011;54687;50.800;6.772;2023-04-16T13:59:07;20.80;;;18.83;;
11016;SDS011;54687;50.800;6.772;2023-04-16T14:01:34;23.17;;;20.52;;
11016;SDS011;54687;50.800;6.772;2023-04-16T14:04:02;20.90;;;18.90;;
11016;SDS011;54687;50.800;6.772;2023-04-16T14:06:30;21.33;;;19.30;;
11016;SDS011;54687;50.800;6.772;2023-04-16T14:08:57;20.98;;;18.92;;
11016;SDS011;54687;50.800;6.772;2023-04-16T14:11:23;21.98;;;19.75;;
11016;SDS011;54687;50.800;6.772;2023-04-16T14:13:50;23.05;;;20.80;;
11016;SDS011;54687;50.800;6.772;2023-04-16T14:16:16;20.30;;;18.27;;
11016;SDS011;54687;50.800;6.772;2023-04-16T14:18:43;22.25;;;20.15;;
11016;SDS011;54687;50.800;6.772;2023-04-16T14:21:11;23.20;;;21.02;;
11016;SDS011;54687;50.800;6.772;2023-04-16T14:23:38;23.67;;;21.45;;